Time;durP1;ratioP1;P1;durP2;ratioP2;P2;SDS_P1;SDS_P2;PMS_P1;PMS_P2;Temp;Humidity;BMP_temperature;BMP_pressure;BME280_temperature;BME280_humidity;BME280_pressure;Samples;Min_cycle;Max_cycle;Signal;HPM_P1;HPM_P2
2021/12/22 00:01:00;;;;;;;28.90;17.70;;;-4.00;99.90;;;;;;4995520;28;20199;-88
2021/12/22 00:03:26;;;;;;;34.50;18.50;;;-4.00;99.90;;;;;;4996409;28;20275;-87
2021/12/22 00:05:52;;;;;;;28.27;17.67;;;-4.00;99.90;;;;;;4996320;28;20258;-87
2021/12/22 00:08:18;;;;;;;32.40;17.87;;;-4.10;99.90;;;;;;4996766;28;20179;-88
2021/12/22 00:10:46;;;;;;;28.77;17.37;;;-4.10;99.90;;;;;;4996128;28;20238;-87
2021/12/22 00:13:12;;;;;;;29.03;16.57;;;-4.20;99.90;;;;;;4980100;28;20202;-87
2021/12/22 00:15:39;;;;;;;29.37;16.43;;;-4.20;99.90;;;;;;4996117;28;20187;-87
2021/12/22 00:18:05;;;;;;;27.47;17.03;;;-4.30;99.90;;;;;;4996307;28;20180;-87
2021/12/22 00:20:31;;;;;;;29.77;16.80;;;-4.20;99.90;;;;;;4996281;28;20275;-87
2021/12/22 00:22:57;;;;;;;30.90;16.53;;;-4.20;99.90;;;;;;4996034;28;20190;-87
2021/12/22 00:25:25;;;;;;;28.77;15.83;;;-4.20;99.90;;;;;;4996226;28;20237;-87
2021/12/22 00:27:56;;;;;;;28.87;16.73;;;-4.20;99.90;;;;;;4996231;28;20273;-87
2021/12/22 00:30:26;;;;;;;29.87;17.57;;;-4.20;99.90;;;;;;4996232;28;20210;-87
2021/12/22 00:32:55;;;;;;;34.77;17.10;;;-4.20;99.90;;;;;;4995934;28;20203;-87
2021/12/22 00:35:26;;;;;;;31.73;17.03;;;-4.20;99.90;;;;;;4995870;28;20182;-87
2021/12/22 00:37:51;;;;;;;27.37;16.27;;;-4.30;99.90;;;;;;4996052;28;20258;-87
2021/12/22 00:40:17;;;;;;;28.63;16.80;;;-4.30;99.90;;;;;;4996015;28;20262;-87
2021/12/22 00:42:43;;;;;;;31.93;17.50;;;-4.30;99.90;;;;;;4995997;28;20207;-87
2021/12/22 00:45:10;;;;;;;27.10;17.13;;;-4.30;99.90;;;;;;4995757;28;20187;-87
2021/12/22 00:47:37;;;;;;;28.97;16.67;;;-4.30;99.90;;;;;;4996045;28;20207;-87
2021/12/22 00:50:05;;;;;;;28.97;16.00;;;-4.40;99.90;;;;;;4995643;28;20183;-87
2021/12/22 00:52:31;;;;;;;28.83;16.13;;;-4.40;99.90;;;;;;4995610;28;20210;-87
2021/12/22 00:54:57;;;;;;;26.87;14.13;;;-4.60;99.90;;;;;;5012294;28;20266;-87
2021/12/22 00:57:23;;;;;;;25.37;13.97;;;-4.60;99.90;;;;;;4995992;28;20242;-87
2021/12/22 00:59:49;;;;;;;27.17;14.30;;;-4.60;99.90;;;;;;4995733;28;20234;-87
2021/12/22 01:02:18;;;;;;;27.20;14.27;;;-4.70;99.90;;;;;;4995749;28;20237;-87
2021/12/22 01:04:44;;;;;;;24.20;14.93;;;-4.70;99.90;;;;;;4995646;28;20187;-87
2021/12/22 01:07:11;;;;;;;27.60;14.07;;;-4.60;99.90;;;;;;5012485;28;20246;-87
2021/12/22 01:09:37;;;;;;;25.93;14.40;;;-4.70;99.90;;;;;;4983261;28;20219;-87
2021/12/22 01:12:05;;;;;;;28.03;16.03;;;-4.70;99.90;;;;;;4999408;28;20269;-87
2021/12/22 01:14:31;;;;;;;30.53;15.40;;;-4.70;99.90;;;;;;5016034;28;20180;-87
2021/12/22 01:17:01;;;;;;;27.70;15.00;;;-4.60;99.90;;;;;;4999717;28;20251;-87
2021/12/22 01:19:37;;;;;;;29.80;15.33;;;-4.60;99.90;;;;;;4999488;28;20182;-87
2021/12/22 01:22:20;;;;;;;29.73;15.63;;;-4.60;99.90;;;;;;4999420;28;20211;-87
2021/12/22 01:24:59;;;;;;;27.57;16.30;;;-4.70;99.90;;;;;;4999235;28;20282;-88
2021/12/22 01:27:28;;;;;;;29.23;15.53;;;-4.70;99.90;;;;;;4999295;28;20186;-87
2021/12/22 01:29:54;;;;;;;31.17;15.60;;;-4.70;99.90;;;;;;4999245;28;20184;-87
2021/12/22 01:32:20;;;;;;;28.20;15.53;;;-4.80;99.90;;;;;;4999476;28;20215;-87
2021/12/22 01:34:46;;;;;;;28.57;15.57;;;-4.80;99.90;;;;;;5015388;28;20273;-88
2021/12/22 01:37:12;;;;;;;28.57;16.23;;;-4.70;99.90;;;;;;4999415;28;20182;-87
2021/12/22 01:39:38;;;;;;;29.80;15.77;;;-4.70;99.90;;;;;;4999279;28;20175;-87
2021/12/22 01:42:04;;;;;;;30.23;16.47;;;-4.70;99.90;;;;;;4999078;28;20203;-87
2021/12/22 01:44:46;;;;;;;28.63;16.67;;;-4.70;99.90;;;;;;4998852;28;20187;-87
2021/12/22 01:49:58;;;;;;;29.83;16.87;;;-4.90;99.90;;;;;;5015668;28;20206;-87
2021/12/22 01:52:24;;;;;;;28.33;16.10;;;-4.90;99.90;;;;;;4998797;28;20211;-87
2021/12/22 01:55:13;;;;;;;27.23;15.80;;;-4.80;99.90;;;;;;4999252;28;20215;-87
2021/12/22 01:57:46;;;;;;;26.60;15.27;;;-4.80;99.90;;;;;;4998964;28;20182;-87
2021/12/22 02:00:14;;;;;;;25.97;16.03;;;-4.90;99.90;;;;;;5015452;28;20172;-87
2021/12/22 02:02:40;;;;;;;28.37;15.50;;;-4.90;99.90;;;;;;4998717;28;20266;-87
2021/12/22 02:05:06;;;;;;;29.97;16.13;;;-4.80;99.90;;;;;;4998716;28;20176;-87
2021/12/22 02:07:32;;;;;;;28.67;15.83;;;-4.80;99.90;;;;;;5016413;28;20175;-87
2021/12/22 02:12:46;;;;;;;26.83;15.37;;;-4.90;99.90;;;;;;5015081;28;20309;-87
2021/12/22 02:15:12;;;;;;;26.90;16.00;;;-4.90;99.90;;;;;;4998503;28;20174;-87
2021/12/22 02:17:40;;;;;;;23.37;14.23;;;-5.00;99.90;;;;;;4998593;28;20187;-87
2021/12/22 02:20:06;;;;;;;28.93;14.47;;;-5.00;99.90;;;;;;4997619;28;20179;-87
2021/12/22 02:22:33;;;;;;;26.23;14.83;;;-5.10;99.90;;;;;;4998617;28;20667;-87
2021/12/22 02:25:04;;;;;;;25.93;14.17;;;-5.10;99.90;;;;;;4998341;28;20217;-87
2021/12/22 02:27:43;;;;;;;27.50;15.23;;;-5.10;99.90;;;;;;4998606;28;20619;-87
2021/12/22 02:30:16;;;;;;;31.03;15.47;;;-5.10;99.90;;;;;;4998845;28;20206;-87
2021/12/22 02:39:08;;;;;;;24.57;14.20;;;-5.10;99.90;;;;;;5015752;28;20178;-87
2021/12/22 02:41:37;;;;;;;26.97;15.00;;;-5.20;99.90;;;;;;4997898;28;20222;-87
2021/12/22 02:44:03;;;;;;;28.63;16.47;;;-5.20;99.90;;;;;;5008680;28;20272;-87
2021/12/22 02:46:32;;;;;;;27.50;15.80;;;-5.20;99.90;;;;;;5037966;28;20186;-87
2021/12/22 02:49:00;;;;;;;27.50;15.53;;;-5.20;99.90;;;;;;5022080;28;20186;-87
2021/12/22 02:51:28;;;;;;;26.67;16.10;;;-5.10;99.90;;;;;;5038752;28;20229;-87
2021/12/22 02:54:05;;;;;;;30.37;17.30;;;-5.10;99.90;;;;;;5038785;28;20185;-87
2021/12/22 02:56:39;;;;;;;41.43;22.30;;;-5.20;99.90;;;;;;5038369;28;20194;-87
2021/12/22 03:04:09;;;;;;;28.60;15.97;;;-5.30;99.90;;;;;;5037524;28;20189;-87
2021/12/22 03:06:40;;;;;;;28.07;15.60;;;-5.40;99.90;;;;;;5036965;28;20169;-87
2021/12/22 03:09:24;;;;;;;27.50;14.93;;;-5.50;99.90;;;;;;5020561;28;20208;-87
2021/12/22 03:11:52;;;;;;;29.70;15.40;;;-5.60;99.90;;;;;;5037346;28;20209;-87
2021/12/22 03:14:19;;;;;;;26.53;15.27;;;-5.60;99.90;;;;;;5020534;28;20205;-87
2021/12/22 03:16:46;;;;;;;27.13;16.23;;;-5.60;99.90;;;;;;5020353;28;20182;-87
2021/12/22 03:19:15;;;;;;;28.93;15.70;;;-5.60;99.90;;;;;;5036277;28;20182;-87
2021/12/22 03:25:28;;;;;;;24.40;13.67;;;-5.60;99.90;;;;;;5054530;28;20232;-87
2021/12/22 03:27:57;;;;;;;30.93;15.30;;;-5.60;99.90;;;;;;5020337;28;20186;-87
2021/12/22 03:30:26;;;;;;;28.50;15.83;;;-5.60;99.90;;;;;;5036559;28;20185;-87
2021/12/22 03:32:52;;;;;;;25.67;14.80;;;-5.50;99.90;;;;;;5036792;28;20333;-87
2021/12/22 03:35:20;;;;;;;24.93;14.10;;;-5.50;99.90;;;;;;5036744;28;20185;-87
2021/12/22 03:37:53;;;;;;;30.73;15.30;;;-5.50;99.90;;;;;;5036227;28;20184;-86
2021/12/22 03:40:22;;;;;;;26.67;14.27;;;-5.50;99.90;;;;;;5020059;28;20173;-86
2021/12/22 03:42:48;;;;;;;30.20;15.13;;;-5.40;99.90;;;;;;5036304;28;20205;-87
2021/12/22 03:45:15;;;;;;;25.07;14.37;;;-5.40;99.90;;;;;;5019842;28;20761;-87
2021/12/22 03:47:42;;;;;;;26.90;15.47;;;-5.40;99.90;;;;;;5036672;28;20219;-87
2021/12/22 03:50:09;;;;;;;30.50;15.73;;;-5.30;99.90;;;;;;5036165;28;20189;-87
2021/12/22 03:52:35;;;;;;;29.93;14.73;;;-5.30;99.90;;;;;;5036006;28;20304;-87
2021/12/22 03:55:02;;;;;;;23.93;14.07;;;-5.30;99.90;;;;;;5036319;28;20174;-87
2021/12/22 03:57:29;;;;;;;24.60;13.40;;;-5.30;99.90;;;;;;5036490;28;20261;-87
2021/12/22 03:59:58;;;;;;;28.37;15.63;;;-5.40;99.90;;;;;;5036082;28;20197;-87
2021/12/22 04:02:24;;;;;;;25.63;13.90;;;-5.40;99.90;;;;;;5035649;28;20690;-87
2021/12/22 04:04:51;;;;;;;25.27;13.63;;;-5.50;99.90;;;;;;5035939;28;20699;-87
2021/12/22 04:07:17;;;;;;;30.07;15.10;;;-5.40;99.90;;;;;;5036031;28;20174;-87
2021/12/22 04:09:44;;;;;;;26.60;14.60;;;-5.40;99.90;;;;;;5035876;28;20186;-87
2021/12/22 04:12:10;;;;;;;28.37;15.03;;;-5.40;99.90;;;;;;5036095;28;20215;-87
2021/12/22 04:14:36;;;;;;;28.67;15.17;;;-5.40;99.90;;;;;;5007927;28;20547;-87
2021/12/22 04:17:03;;;;;;;24.97;14.40;;;-5.40;99.90;;;;;;5015912;28;20178;-87
2021/12/22 04:19:29;;;;;;;27.70;14.63;;;-5.40;99.90;;;;;;5016291;28;20178;-87
2021/12/22 04:21:55;;;;;;;25.10;14.37;;;-5.40;99.90;;;;;;5016238;28;20202;-87
2021/12/22 04:24:54;;;;;;;24.03;13.67;;;-5.40;99.90;;;;;;5015589;28;20186;-87
2021/12/22 04:27:20;;;;;;;23.10;12.87;;;-5.40;99.90;;;;;;5016250;28;20286;-87
2021/12/22 04:29:45;;;;;;;26.70;13.47;;;-5.40;99.90;;;;;;5015837;28;20285;-87
2021/12/22 04:32:11;;;;;;;26.00;13.73;;;-5.40;99.90;;;;;;5015747;28;20232;-87
2021/12/22 04:34:37;;;;;;;33.00;16.30;;;-5.50;99.90;;;;;;5015838;28;20198;-87
2021/12/22 04:37:03;;;;;;;35.20;15.90;;;-5.60;99.90;;;;;;5015671;28;20182;-88
2021/12/22 04:39:32;;;;;;;34.13;16.87;;;-5.60;99.90;;;;;;5015559;28;20654;-86
2021/12/22 04:41:59;;;;;;;32.73;16.17;;;-5.70;99.90;;;;;;5015166;28;20206;-87
2021/12/22 04:44:25;;;;;;;32.07;15.53;;;-5.70;99.90;;;;;;5015132;28;20189;-87
2021/12/22 04:46:51;;;;;;;43.67;17.63;;;-5.70;99.90;;;;;;5015547;28;20179;-86
2021/12/22 04:49:17;;;;;;;39.87;16.87;;;-5.80;99.90;;;;;;5015901;28;20185;-87
2021/12/22 04:51:49;;;;;;;35.03;16.60;;;-5.90;99.90;;;;;;5015374;28;20222;-87
2021/12/22 04:56:41;;;;;;;34.13;17.20;;;-6.10;99.90;;;;;;5015350;28;20289;-87
2021/12/22 04:59:07;;;;;;;36.60;17.03;;;-6.10;99.90;;;;;;5015572;28;20178;-87
2021/12/22 05:01:36;;;;;;;34.73;15.83;;;-6.10;99.90;;;;;;5015446;28;20199;-86
2021/12/22 05:04:02;;;;;;;35.53;17.50;;;-6.10;99.90;;;;;;5015534;28;20178;-87
2021/12/22 05:06:28;;;;;;;33.20;16.87;;;-6.10;99.90;;;;;;5015440;28;20189;-87
2021/12/22 05:08:54;;;;;;;32.27;15.83;;;-6.20;99.90;;;;;;5015746;28;20186;-87
2021/12/22 05:11:20;;;;;;;32.90;16.40;;;-6.20;99.90;;;;;;5015168;28;20301;-87
2021/12/22 05:13:46;;;;;;;34.50;16.87;;;-6.20;99.90;;;;;;5010346;28;20194;-87
2021/12/22 05:16:17;;;;;;;31.10;15.77;;;-6.30;99.90;;;;;;4995712;28;20183;-87
2021/12/22 05:19:11;;;;;;;33.60;16.63;;;-6.30;99.90;;;;;;4995805;28;20246;-87
2021/12/22 05:21:37;;;;;;;31.47;15.93;;;-6.30;99.90;;;;;;4995606;28;20203;-86
2021/12/22 05:24:04;;;;;;;27.33;15.00;;;-6.40;99.90;;;;;;4995442;28;20222;-87
2021/12/22 05:26:30;;;;;;;29.53;15.20;;;-6.40;99.90;;;;;;4995268;28;20423;-87
2021/12/22 05:28:56;;;;;;;27.00;15.63;;;-6.50;99.90;;;;;;4995864;28;20194;-87
2021/12/22 05:31:23;;;;;;;30.13;16.00;;;-6.50;99.90;;;;;;4995520;28;20241;-87
2021/12/22 05:33:49;;;;;;;23.80;13.43;;;-6.50;99.90;;;;;;4995610;28;20230;-87
2021/12/22 05:36:15;;;;;;;25.13;14.60;;;-6.60;99.90;;;;;;5015721;28;20198;-87
2021/12/22 05:38:41;;;;;;;24.93;13.83;;;-6.60;99.90;;;;;;5035329;28;20170;-87
2021/12/22 05:41:07;;;;;;;27.23;14.43;;;-6.60;99.90;;;;;;5035047;28;20190;-87
2021/12/22 05:43:34;;;;;;;31.10;15.07;;;-6.70;99.90;;;;;;5015405;28;20197;-87
2021/12/22 05:46:00;;;;;;;28.57;15.33;;;-6.70;99.90;;;;;;5021958;28;20387;-87
2021/12/22 05:48:27;;;;;;;28.23;15.37;;;-6.70;99.90;;;;;;5032029;28;20227;-87
2021/12/22 05:50:57;;;;;;;33.97;15.17;;;-6.70;99.90;;;;;;5034793;28;20240;-87
2021/12/22 05:53:24;;;;;;;28.27;15.03;;;-6.90;99.90;;;;;;5034981;28;20210;-87
2021/12/22 05:55:50;;;;;;;38.40;16.97;;;-7.00;99.90;;;;;;5038074;28;20268;-87
2021/12/22 05:58:15;;;;;;;26.30;14.33;;;-7.00;99.90;;;;;;5038651;28;20516;-87
2021/12/22 06:00:42;;;;;;;34.70;16.60;;;-7.00;99.90;;;;;;5038412;28;20211;-87
2021/12/22 06:03:10;;;;;;;28.60;15.30;;;-7.00;99.90;;;;;;5038960;28;20224;-86
2021/12/22 06:05:37;;;;;;;30.00;15.97;;;-7.00;99.90;;;;;;5038297;28;20642;-87
2021/12/22 06:08:03;;;;;;;28.60;15.30;;;-7.10;99.90;;;;;;5021564;28;20182;-87
2021/12/22 06:10:29;;;;;;;26.50;14.70;;;-7.10;99.90;;;;;;5037594;28;20188;-87
2021/12/22 06:12:56;;;;;;;24.10;12.87;;;-7.10;99.90;;;;;;5021176;28;20210;-88
2021/12/22 06:15:22;;;;;;;27.53;14.80;;;-7.10;99.90;;;;;;5037389;28;20181;-87
2021/12/22 06:17:53;;;;;;;25.47;14.03;;;-7.00;99.90;;;;;;5021207;28;20181;-87
2021/12/22 06:20:19;;;;;;;25.10;14.40;;;-7.00;99.90;;;;;;5037805;28;20181;-87
2021/12/22 06:22:45;;;;;;;28.50;14.80;;;-7.00;99.90;;;;;;5037348;28;20206;-86
2021/12/22 06:25:11;;;;;;;32.23;16.20;;;-7.10;99.90;;;;;;5037187;28;20328;-87
2021/12/22 06:27:37;;;;;;;29.13;15.53;;;-7.20;99.90;;;;;;5020819;28;20221;-87
2021/12/22 06:30:04;;;;;;;30.40;15.00;;;-7.30;99.90;;;;;;5037615;28;20186;-87
2021/12/22 06:32:29;;;;;;;30.47;15.47;;;-7.30;99.90;;;;;;5021023;28;20348;-87
2021/12/22 06:34:55;;;;;;;28.80;15.70;;;-7.20;99.90;;;;;;5020905;28;20261;-87
2021/12/22 06:37:21;;;;;;;31.17;16.60;;;-7.30;99.90;;;;;;5037677;28;20245;-87
2021/12/22 06:39:47;;;;;;;32.63;16.73;;;-7.20;99.90;;;;;;5037114;28;20209;-87
2021/12/22 06:42:13;;;;;;;32.17;17.03;;;-7.20;99.90;;;;;;5037468;28;20283;-87
2021/12/22 06:48:26;;;;;;;29.13;15.30;;;-7.10;99.90;;;;;;5055173;28;20188;-88
2021/12/22 06:50:52;;;;;;;31.63;15.90;;;-7.10;99.90;;;;;;5021426;28;20201;-86
2021/12/22 06:53:18;;;;;;;33.73;16.27;;;-7.00;99.90;;;;;;5034985;28;20227;-86
2021/12/22 06:55:44;;;;;;;31.50;16.87;;;-7.00;99.90;;;;;;5060560;28;20174;-87
2021/12/22 06:58:11;;;;;;;30.07;16.87;;;-7.00;99.90;;;;;;5046854;28;20182;-87
2021/12/22 07:00:37;;;;;;;30.43;16.47;;;-7.00;99.90;;;;;;5036659;28;20174;-87
2021/12/22 07:03:05;;;;;;;31.00;15.83;;;-6.90;99.90;;;;;;5037231;28;20192;-87
2021/12/22 07:05:31;;;;;;;26.53;15.73;;;-6.90;99.90;;;;;;5035790;28;20196;-87
2021/12/22 07:07:57;;;;;;;28.07;16.70;;;-6.90;99.90;;;;;;5036586;28;20586;-87
2021/12/22 07:10:23;;;;;;;26.93;14.63;;;-6.90;99.90;;;;;;5020159;28;20193;-87
2021/12/22 07:12:49;;;;;;;25.93;14.83;;;-7.00;99.90;;;;;;5036506;28;20255;-87
2021/12/22 07:15:18;;;;;;;30.97;15.57;;;-7.00;99.90;;;;;;5003029;28;20178;-87
2021/12/22 07:17:47;;;;;;;29.00;15.10;;;-7.00;99.90;;;;;;5017080;28;20246;-87
2021/12/22 07:20:13;;;;;;;26.77;15.37;;;-7.00;99.90;;;;;;5016771;28;20254;-86
2021/12/22 07:22:39;;;;;;;29.17;15.27;;;-7.00;99.90;;;;;;5016295;28;20199;-87
2021/12/22 07:25:06;;;;;;;29.97;15.73;;;-7.00;99.90;;;;;;5016370;28;20218;-87
2021/12/22 07:27:32;;;;;;;25.73;14.40;;;-7.00;99.90;;;;;;5016426;28;20229;-87
2021/12/22 07:29:58;;;;;;;28.30;15.23;;;-7.00;99.90;;;;;;5017185;28;20179;-87
2021/12/22 07:32:24;;;;;;;34.23;17.27;;;-7.00;99.90;;;;;;5016608;28;20210;-87
2021/12/22 07:35:09;;;;;;;31.77;16.00;;;-6.90;99.90;;;;;;5017025;28;20178;-85
2021/12/22 07:37:50;;;;;;;30.00;17.33;;;-6.90;99.90;;;;;;5017419;28;20229;-87
2021/12/22 07:40:19;;;;;;;31.00;17.20;;;-6.90;99.90;;;;;;5016160;28;20262;-87
2021/12/22 07:42:45;;;;;;;33.23;18.23;;;-6.80;99.90;;;;;;5015951;28;20207;-87
2021/12/22 07:45:12;;;;;;;35.63;18.93;;;-6.70;99.90;;;;;;5016120;28;20183;-87
2021/12/22 07:47:39;;;;;;;32.47;18.53;;;-6.80;99.90;;;;;;5016139;28;20209;-87
2021/12/22 07:50:06;;;;;;;38.17;19.40;;;-6.70;99.90;;;;;;5017112;28;20183;-87
2021/12/22 07:52:32;;;;;;;38.17;19.33;;;-6.70;99.90;;;;;;5015911;28;20209;-87
2021/12/22 07:54:59;;;;;;;33.93;17.47;;;-6.70;99.90;;;;;;5015848;28;20177;-87
2021/12/22 07:57:25;;;;;;;24.97;14.97;;;-6.60;99.90;;;;;;5016216;28;20175;-87
2021/12/22 07:59:51;;;;;;;35.53;17.07;;;-6.70;99.90;;;;;;4999843;28;20179;-87
2021/12/22 08:02:17;;;;;;;32.77;16.97;;;-6.70;99.90;;;;;;5015817;28;20260;-87
2021/12/22 08:04:44;;;;;;;36.57;18.23;;;-6.80;99.90;;;;;;5015630;28;20278;-87
2021/12/22 08:07:10;;;;;;;33.43;17.90;;;-6.70;99.90;;;;;;5015381;28;20263;-87
2021/12/22 08:09:36;;;;;;;38.57;19.40;;;-6.70;99.90;;;;;;5015276;28;20183;-87
2021/12/22 08:12:05;;;;;;;35.37;17.87;;;-6.70;99.90;;;;;;5015729;28;20210;-87
2021/12/22 08:14:36;;;;;;;36.70;19.10;;;-6.70;99.90;;;;;;5004382;28;20202;-88
2021/12/22 08:17:03;;;;;;;38.80;18.73;;;-6.70;99.90;;;;;;4995132;28;20168;-87
2021/12/22 08:19:29;;;;;;;41.37;20.37;;;-6.60;99.90;;;;;;5011597;28;20266;-87
2021/12/22 08:21:55;;;;;;;39.67;18.83;;;-6.50;99.90;;;;;;4995708;28;20353;-87
2021/12/22 08:24:22;;;;;;;34.60;18.40;;;-6.40;99.90;;;;;;4996161;28;20183;-87
2021/12/22 08:26:48;;;;;;;34.10;18.47;;;-6.30;99.90;;;;;;4996057;28;20281;-87
2021/12/22 08:29:14;;;;;;;32.63;16.93;;;-6.20;99.90;;;;;;4995784;28;20266;-87
2021/12/22 08:31:40;;;;;;;34.67;17.67;;;-6.10;99.90;;;;;;4995547;28;20294;-87
2021/12/22 08:34:08;;;;;;;29.17;16.57;;;-6.10;99.90;;;;;;4996062;28;20294;-87
2021/12/22 08:39:19;;;;;;;30.93;15.67;;;-5.90;99.90;;;;;;5012238;28;20183;-87
2021/12/22 08:41:47;;;;;;;31.40;17.73;;;-5.90;99.90;;;;;;4995935;28;20195;-87
2021/12/22 08:44:18;;;;;;;30.63;17.27;;;-5.70;99.90;;;;;;5004376;28;20205;-87
2021/12/22 08:46:49;;;;;;;31.30;17.03;;;-5.60;99.90;;;;;;5015179;28;20205;-87
2021/12/22 08:49:17;;;;;;;34.63;17.97;;;-5.50;99.90;;;;;;5015155;28;20186;-87
2021/12/22 08:51:42;;;;;;;32.43;17.23;;;-5.40;99.90;;;;;;5014913;28;22289;-88
2021/12/22 08:54:09;;;;;;;30.27;17.23;;;-5.20;99.90;;;;;;4998898;28;20261;-87
2021/12/22 08:56:36;;;;;;;31.60;16.67;;;-5.20;99.90;;;;;;5014811;28;20595;-87
2021/12/22 08:59:04;;;;;;;30.30;17.30;;;-5.10;99.90;;;;;;5015221;28;20230;-87
2021/12/22 09:01:30;;;;;;;28.07;17.03;;;-4.90;99.90;;;;;;5015286;28;20281;-87
2021/12/22 09:03:56;;;;;;;27.73;16.53;;;-4.90;99.90;;;;;;5015573;28;20229;-88
2021/12/22 09:06:22;;;;;;;30.13;16.47;;;-4.70;99.90;;;;;;5014773;28;20179;-87
2021/12/22 09:08:48;;;;;;;28.47;16.20;;;-4.60;99.90;;;;;;4998739;28;20233;-87
2021/12/22 09:11:14;;;;;;;29.30;16.27;;;-4.50;99.90;;;;;;5014872;28;20209;-88
2021/12/22 09:13:41;;;;;;;28.67;17.00;;;-4.50;99.90;;;;;;5014682;28;20220;-88
2021/12/22 09:16:08;;;;;;;27.30;16.63;;;-4.30;99.90;;;;;;5014765;28;20182;-87
2021/12/22 09:18:35;;;;;;;27.70;16.53;;;-4.20;99.90;;;;;;5015272;28;20229;-88
2021/12/22 09:21:01;;;;;;;29.53;17.37;;;-4.30;99.90;;;;;;5014823;28;20851;-87
2021/12/22 09:23:27;;;;;;;30.43;17.50;;;-4.10;99.90;;;;;;5014768;28;20179;-87
2021/12/22 09:25:53;;;;;;;31.37;17.03;;;-4.10;99.90;;;;;;5014484;28;20190;-87
2021/12/22 09:28:19;;;;;;;31.83;18.90;;;-4.00;99.90;;;;;;5014790;28;20182;-87
2021/12/22 09:30:46;;;;;;;34.47;19.03;;;-3.90;99.90;;;;;;5018378;28;20182;-88
2021/12/22 09:33:15;;;;;;;31.87;18.27;;;-3.80;99.90;;;;;;5002188;28;20202;-88
2021/12/22 09:35:42;;;;;;;31.70;18.60;;;-3.70;99.90;;;;;;5018744;28;20183;-88
2021/12/22 09:38:09;;;;;;;33.50;18.87;;;-3.70;99.90;;;;;;5018473;28;20189;-88
2021/12/22 09:40:36;;;;;;;31.77;18.57;;;-3.60;99.90;;;;;;5018384;28;20213;-87
2021/12/22 09:43:02;;;;;;;34.07;18.23;;;-3.50;99.90;;;;;;5018769;28;20194;-88
2021/12/22 09:45:28;;;;;;;30.57;17.87;;;-3.40;99.90;;;;;;5018550;28;20179;-87
2021/12/22 09:50:48;;;;;;;28.73;18.10;;;-3.10;99.90;;;;;;5018227;28;20205;-88
2021/12/22 09:53:16;;;;;;;29.17;17.40;;;-3.00;99.90;;;;;;5018087;28;20207;-88
2021/12/22 09:55:42;;;;;;;32.73;18.13;;;-3.00;99.90;;;;;;5017824;28;20251;-87
2021/12/22 09:58:11;;;;;;;31.47;18.47;;;-2.90;99.90;;;;;;5017990;28;20174;-87
2021/12/22 10:00:38;;;;;;;28.27;17.50;;;-2.90;99.90;;;;;;5018091;28;20265;-88
2021/12/22 10:03:06;;;;;;;29.93;17.27;;;-2.70;99.90;;;;;;5018491;28;20189;-81
2021/12/22 10:05:34;;;;;;;32.53;19.00;;;-2.70;99.90;;;;;;5017851;28;20194;-88
2021/12/22 10:08:12;;;;;;;31.43;18.13;;;-2.70;99.90;;;;;;5022243;28;20259;-88
2021/12/22 10:10:50;;;;;;;28.93;17.77;;;-2.60;99.90;;;;;;5021206;28;20272;-88
2021/12/22 10:13:23;;;;;;;30.87;18.13;;;-2.50;99.90;;;;;;5001999;28;20210;-88
2021/12/22 10:15:55;;;;;;;28.90;17.27;;;-2.40;99.90;;;;;;5017853;28;20187;-88
2021/12/22 10:18:24;;;;;;;30.63;18.80;;;-2.20;99.90;;;;;;5018549;28;20337;-88
2021/12/22 10:21:09;;;;;;;30.00;18.13;;;-2.10;99.90;;;;;;5018430;28;20304;-88
2021/12/22 10:23:40;;;;;;;30.83;20.53;;;-2.00;99.90;;;;;;5002469;28;20186;-88
2021/12/22 10:26:09;;;;;;;31.70;18.83;;;-1.90;99.90;;;;;;5001990;28;20251;-88
2021/12/22 10:28:51;;;;;;;30.97;18.03;;;-1.80;99.90;;;;;;5002328;28;20632;-88
2021/12/22 10:31:19;;;;;;;28.63;17.90;;;-1.80;99.90;;;;;;5017991;28;20202;-88
2021/12/22 10:33:47;;;;;;;28.30;16.50;;;-1.80;99.90;;;;;;5018069;28;20203;-89
2021/12/22 10:36:17;;;;;;;29.60;17.13;;;-1.70;99.90;;;;;;4980205;28;20187;-88
2021/12/22 10:42:45;;;;;;;28.17;16.87;;;-1.50;99.90;;;;;;5015426;28;20275;-88
2021/12/22 10:45:22;;;;;;;27.30;16.63;;;-1.50;99.90;;;;;;5014519;28;20190;-88
2021/12/22 10:50:42;;;;;;;26.53;16.20;;;-1.30;99.90;;;;;;5021235;28;20258;-88
2021/12/22 10:53:22;;;;;;;26.77;15.60;;;-1.30;99.90;;;;;;5016894;28;20206;-88
2021/12/22 10:55:52;;;;;;;26.93;16.03;;;-1.20;99.90;;;;;;5017832;28;20209;-88
2021/12/22 10:58:25;;;;;;;25.30;15.13;;;-1.30;99.90;;;;;;4985763;28;20178;-88
2021/12/22 11:01:17;;;;;;;26.93;15.67;;;-1.30;99.90;;;;;;5017530;28;20195;-88
2021/12/22 11:03:51;;;;;;;25.60;14.93;;;-1.30;99.90;;;;;;5001175;28;20320;-88
2021/12/22 11:06:38;;;;;;;28.83;16.73;;;-1.20;99.90;;;;;;5001356;28;20181;-87
2021/12/22 11:09:34;;;;;;;27.70;17.17;;;-1.20;99.90;;;;;;5000648;28;20183;-88
2021/12/22 11:12:01;;;;;;;28.20;17.43;;;-1.10;99.90;;;;;;4997751;28;20209;-88
2021/12/22 11:14:33;;;;;;;30.77;19.03;;;-1.00;99.90;;;;;;5001231;28;20178;-88
2021/12/22 11:17:00;;;;;;;29.50;17.63;;;-1.00;99.90;;;;;;5019107;28;20186;-88
2021/12/22 11:19:29;;;;;;;25.60;16.67;;;-0.80;99.90;;;;;;5000613;28;20183;-88
2021/12/22 11:22:11;;;;;;;28.37;16.63;;;-0.80;99.90;;;;;;5019807;28;20256;-88
2021/12/22 11:24:51;;;;;;;26.37;15.77;;;-0.70;99.90;;;;;;5036547;28;20170;-88
2021/12/22 11:27:27;;;;;;;26.30;15.70;;;-0.70;99.90;;;;;;5036117;28;20199;-87
2021/12/22 11:29:56;;;;;;;27.00;16.43;;;-0.70;99.90;;;;;;5022349;28;20183;-88
2021/12/22 11:32:26;;;;;;;26.13;16.33;;;-0.60;99.90;;;;;;5016785;28;20256;-88
2021/12/22 11:35:04;;;;;;;24.20;14.97;;;-0.50;99.90;;;;;;5009546;28;20250;-88
2021/12/22 11:37:31;;;;;;;20.80;13.67;;;-0.40;99.90;;;;;;5036697;28;20182;-88
2021/12/22 11:39:58;;;;;;;23.50;15.00;;;-0.30;99.90;;;;;;5019896;28;20183;-88
2021/12/22 11:42:30;;;;;;;22.23;14.23;;;-0.20;99.90;;;;;;5020202;28;20203;-88
2021/12/22 11:45:19;;;;;;;25.23;15.30;;;-0.20;99.90;;;;;;5036783;28;20176;-88
2021/12/22 11:47:47;;;;;;;23.53;15.37;;;-0.10;99.90;;;;;;5019929;28;20178;-88
2021/12/22 11:50:15;;;;;;;25.07;15.83;;;-0.10;99.90;;;;;;5036109;28;20274;-88
2021/12/22 11:52:51;;;;;;;25.83;16.13;;;0.00;99.90;;;;;;5019430;28;20207;-88
2021/12/22 11:58:48;;;;;;;22.83;14.50;;;0.10;99.90;;;;;;5036118;28;20179;-88
2021/12/22 12:01:14;;;;;;;24.60;15.17;;;0.20;99.90;;;;;;5036074;28;20196;-88
2021/12/22 12:03:44;;;;;;;22.70;14.50;;;0.30;99.90;;;;;;5035958;28;20184;-88
2021/12/22 12:06:14;;;;;;;22.83;14.73;;;0.30;99.90;;;;;;5033848;28;20195;-88
2021/12/22 12:08:47;;;;;;;23.87;15.90;;;0.30;99.90;;;;;;5036547;28;20176;-82
2021/12/22 12:11:17;;;;;;;22.27;13.67;;;0.40;99.90;;;;;;5035848;28;20203;-89
2021/12/22 12:13:55;;;;;;;24.47;15.17;;;0.50;99.90;;;;;;5036151;28;20295;-89
2021/12/22 12:22:37;;;;;;;22.53;14.23;;;0.70;99.90;;;;;;5015941;28;20237;-89
2021/12/22 12:25:11;;;;;;;23.20;14.67;;;0.80;99.90;;;;;;4999653;28;20204;-89
2021/12/22 12:27:55;;;;;;;25.40;15.57;;;0.90;99.90;;;;;;4999949;28;20261;-89
2021/12/22 12:30:40;;;;;;;22.93;14.70;;;0.90;99.90;;;;;;4999534;28;20186;-89
2021/12/22 12:36:53;;;;;;;22.23;14.50;;;0.80;99.90;;;;;;5033514;28;20199;-88
2021/12/22 12:39:55;;;;;;;22.70;15.00;;;1.00;99.90;;;;;;4999767;28;20182;-89
2021/12/22 12:42:21;;;;;;;23.37;14.83;;;1.10;99.90;;;;;;5015770;28;20205;-89
2021/12/22 12:44:47;;;;;;;22.63;14.40;;;1.20;99.90;;;;;;4999117;28;20185;-89
2021/12/22 12:47:21;;;;;;;20.37;14.47;;;1.20;99.90;;;;;;4983860;28;20212;-89
2021/12/22 12:49:47;;;;;;;23.30;16.03;;;1.30;99.90;;;;;;4999193;28;20189;-89
2021/12/22 12:52:23;;;;;;;22.20;14.87;;;1.30;99.90;;;;;;5011115;28;20206;-89
2021/12/22 12:55:11;;;;;;;24.47;15.73;;;1.30;99.90;;;;;;4999018;28;20235;-89
2021/12/22 12:58:34;;;;;;;21.97;14.67;;;1.20;99.90;;;;;;4999352;28;20166;-89
2021/12/22 13:01:08;;;;;;;21.23;14.13;;;1.20;99.90;;;;;;5047487;28;20201;-89
2021/12/22 13:03:48;;;;;;;23.43;14.80;;;1.30;99.90;;;;;;5035432;28;20177;-89
2021/12/22 13:06:15;;;;;;;24.43;14.93;;;1.50;99.90;;;;;;5038863;28;20246;-89
2021/12/22 13:08:51;;;;;;;26.23;15.23;;;1.60;99.90;;;;;;5022252;28;20197;-86
2021/12/22 13:11:17;;;;;;;23.23;14.33;;;1.70;99.90;;;;;;5033735;28;20243;-82
2021/12/22 13:19:57;;;;;;;23.70;14.90;;;1.80;99.90;;;;;;5019353;28;20544;-90
2021/12/22 13:22:32;;;;;;;24.37;15.80;;;1.80;99.90;;;;;;5019496;28;20684;-89
2021/12/22 13:25:23;;;;;;;25.73;16.33;;;1.70;99.90;;;;;;5019035;28;20178;-89
2021/12/22 13:28:11;;;;;;;26.33;15.83;;;1.70;99.90;;;;;;5019262;28;20193;-90
2021/12/22 13:30:46;;;;;;;24.87;15.53;;;1.70;99.90;;;;;;5019558;28;20171;-90
2021/12/22 13:33:18;;;;;;;24.60;14.57;;;1.80;99.90;;;;;;5019508;28;20205;-90
2021/12/22 13:36:02;;;;;;;21.83;15.10;;;1.90;99.90;;;;;;5019190;28;20221;-90
2021/12/22 13:38:37;;;;;;;23.97;15.23;;;2.10;99.90;;;;;;5018926;28;20182;-90